Time;durP1;ratioP1;P1;durP2;ratioP2;P2;SDS_P1;SDS_P2;PMS_P1;PMS_P2;Temp;Humidity;BMP_temperature;BMP_pressure;BME280_temperature;BME280_humidity;BME280_pressure;Samples;Min_cycle;Max_cycle;Signal;HPM_P1;HPM_P2
2021/07/07 00:01:49;;;;;;;15.93;8.38;;;;;;;25.67;51.10;99542.41;5039356;28;20063;-67
2021/07/07 00:04:15;;;;;;;18.88;7.97;;;;;;;25.72;50.80;99540.53;5041420;28;20032;-68
2021/07/07 00:06:40;;;;;;;12.45;7.82;;;;;;;25.57;50.95;99536.91;5037640;28;20273;-67
2021/07/07 00:09:06;;;;;;;15.80;8.20;;;;;;;25.69;50.67;99543.75;5036945;28;20037;-66
2021/07/07 00:11:31;;;;;;;15.32;7.82;;;;;;;25.78;50.46;99547.59;5040293;28;20256;-69
2021/07/07 00:13:56;;;;;;;16.65;7.90;;;;;;;25.68;50.66;99550.28;5038452;28;20229;-69
2021/07/07 00:16:22;;;;;;;11.70;7.15;;;;;;;25.42;51.19;99548.50;5038823;28;20036;-67
2021/07/07 00:18:47;;;;;;;14.25;7.90;;;;;;;25.25;51.53;99550.59;5037091;28;20034;-67
2021/07/07 00:21:13;;;;;;;19.10;8.23;;;;;;;24.98;52.30;99556.09;5039821;28;20018;-66
2021/07/07 00:23:39;;;;;;;13.32;6.85;;;;;;;25.01;51.93;99555.59;5036928;28;20036;-66
2021/07/07 00:26:05;;;;;;;16.65;7.65;;;;;;;25.05;51.71;99554.00;5037899;28;20204;-69
2021/07/07 00:28:30;;;;;;;12.10;7.65;;;;;;;25.29;50.88;99548.97;5039228;28;20126;-66
2021/07/07 00:30:56;;;;;;;11.13;7.15;;;;;;;25.52;50.23;99558.56;5040184;28;20342;-69
2021/07/07 00:33:22;;;;;;;10.13;6.53;;;;;;;25.60;50.33;99560.78;5039639;28;20036;-66
2021/07/07 00:35:47;;;;;;;12.40;6.78;;;;;;;25.43;50.63;99559.06;5038043;28;20029;-68
2021/07/07 00:38:13;;;;;;;10.95;6.80;;;;;;;25.30;50.93;99561.44;5038296;28;20037;-66
2021/07/07 00:40:42;;;;;;;10.50;6.10;;;;;;;25.25;50.58;99559.53;5040307;28;20059;-67
2021/07/07 00:43:08;;;;;;;13.02;6.95;;;;;;;25.23;50.18;99550.84;5040135;28;20042;-65
2021/07/07 00:45:34;;;;;;;11.25;6.07;;;;;;;25.03;50.78;99570.50;5035368;28;20032;-67
2021/07/07 00:48:00;;;;;;;10.35;6.15;;;;;;;25.21;50.05;99568.44;5039701;28;20040;-68
2021/07/07 00:50:25;;;;;;;11.00;5.75;;;;;;;25.23;50.00;99563.56;5037816;28;20108;-69
2021/07/07 00:52:51;;;;;;;9.80;6.45;;;;;;;25.23;49.93;99567.09;5038340;28;20048;-69
2021/07/07 00:55:17;;;;;;;11.90;6.45;;;;;;;25.17;49.95;99564.63;5039065;28;20084;-69
2021/07/07 00:57:44;;;;;;;10.65;6.57;;;;;;;25.21;50.33;99568.44;5040461;28;20037;-66
2021/07/07 01:00:12;;;;;;;10.27;6.03;;;;;;;25.16;50.52;99565.69;5039444;28;20093;-68
2021/07/07 01:02:40;;;;;;;9.05;5.85;;;;;;;25.14;50.35;99553.22;5041622;28;20036;-66
2021/07/07 01:05:08;;;;;;;11.73;5.60;;;;;;;25.20;50.43;99564.91;5035975;28;20045;-67
2021/07/07 01:07:34;;;;;;;13.50;5.30;;;;;;;25.07;50.95;99562.66;5035421;28;20041;-67
2021/07/07 01:10:00;;;;;;;7.65;5.38;;;;;;;25.06;50.78;99563.75;5036424;28;20052;-68
2021/07/07 01:12:28;;;;;;;9.10;5.25;;;;;;;24.93;51.19;99566.84;5040304;28;20025;-69
2021/07/07 01:14:55;;;;;;;8.88;5.47;;;;;;;24.91;51.29;99569.00;5034937;28;20049;-69
2021/07/07 01:17:23;;;;;;;6.13;4.72;;;;;;;24.99;50.96;99569.38;5036592;28;20044;-67
2021/07/07 01:19:49;;;;;;;8.88;5.70;;;;;;;24.97;51.10;99568.84;5038715;28;20100;-68
2021/07/07 01:22:14;;;;;;;8.40;4.75;;;;;;;25.00;50.95;99567.50;5038177;28;20049;-68
2021/07/07 01:24:39;;;;;;;6.90;5.35;;;;;;;24.96;50.89;99574.44;5038287;28;20060;-67
2021/07/07 01:27:05;;;;;;;15.02;5.80;;;;;;;24.76;51.48;99567.81;5038912;28;20025;-66
2021/07/07 01:29:31;;;;;;;10.20;5.35;;;;;;;24.76;52.01;99570.50;5037288;28;20059;-67
2021/07/07 01:31:57;;;;;;;9.05;5.25;;;;;;;24.73;52.17;99560.19;5037899;28;20029;-67
2021/07/07 01:34:22;;;;;;;11.82;5.78;;;;;;;24.92;51.82;99578.75;5038816;28;20025;-68
2021/07/07 01:36:48;;;;;;;7.63;5.45;;;;;;;24.88;52.58;99589.28;5035627;28;20041;-66
2021/07/07 01:39:13;;;;;;;8.73;6.15;;;;;;;24.24;55.92;99594.66;5039575;28;20037;-65
2021/07/07 01:41:39;;;;;;;12.60;6.70;;;;;;;23.47;58.34;99605.56;5036135;28;20040;-67
2021/07/07 01:44:06;;;;;;;8.50;6.72;;;;;;;22.88;60.09;99592.50;5037454;28;20037;-69
2021/07/07 01:46:31;;;;;;;8.60;6.45;;;;;;;22.56;61.39;99605.72;5034009;28;20033;-66
2021/07/07 01:48:57;;;;;;;8.93;6.93;;;;;;;22.40;61.69;99603.81;5037730;28;20100;-68
2021/07/07 01:51:22;;;;;;;10.35;7.50;;;;;;;22.47;61.69;99609.06;5038031;28;20043;-70
2021/07/07 01:53:48;;;;;;;13.95;6.93;;;;;;;22.40;61.96;99603.00;5037170;28;20279;-68
2021/07/07 01:56:13;;;;;;;8.88;6.70;;;;;;;22.37;61.46;99616.97;5036610;28;20116;-69
2021/07/07 01:58:39;;;;;;;12.77;6.90;;;;;;;21.86;63.62;99621.34;5038801;28;20041;-69
2021/07/07 02:01:07;;;;;;;11.88;6.97;;;;;;;21.53;65.27;99628.16;5036871;28;20021;-68
2021/07/07 02:03:32;;;;;;;9.00;7.20;;;;;;;21.37;65.85;99609.22;5035695;28;20037;-70
2021/07/07 02:05:58;;;;;;;13.70;6.75;;;;;;;21.63;65.01;99614.09;5037340;28;20033;-70
2021/07/07 02:08:24;;;;;;;9.13;6.57;;;;;;;21.90;63.99;99609.84;5037621;28;20269;-68
2021/07/07 02:10:49;;;;;;;10.40;6.40;;;;;;;22.29;63.00;99604.69;5042259;28;20025;-70
2021/07/07 02:13:15;;;;;;;7.22;6.10;;;;;;;22.65;61.33;99610.72;5040492;28;20029;-71
2021/07/07 02:15:41;;;;;;;12.82;6.97;;;;;;;22.85;60.39;99622.69;5032320;28;20044;-70
2021/07/07 02:18:07;;;;;;;9.52;6.63;;;;;;;22.58;60.98;99629.75;5037215;28;20037;-70
2021/07/07 02:20:36;;;;;;;8.70;7.05;;;;;;;22.08;63.37;99627.75;5036734;28;20045;-70
2021/07/07 02:23:02;;;;;;;9.10;7.35;;;;;;;22.03;63.79;99621.44;5036690;28;20047;-70
2021/07/07 02:25:31;;;;;;;11.35;6.97;;;;;;;22.19;63.39;99628.78;5037413;28;20056;-70
2021/07/07 02:27:59;;;;;;;14.02;7.43;;;;;;;22.40;63.05;99630.78;5038114;28;20064;-70
2021/07/07 02:30:30;;;;;;;8.02;6.88;;;;;;;22.61;61.93;99629.28;5037597;28;20045;-70
2021/07/07 02:32:56;;;;;;;10.23;6.75;;;;;;;22.79;60.99;99636.31;5036250;28;20034;-71
2021/07/07 02:35:25;;;;;;;8.88;6.60;;;;;;;22.89;60.28;99636.56;5033794;28;20053;-69
2021/07/07 02:37:53;;;;;;;12.30;7.32;;;;;;;22.67;61.01;99635.56;5037542;28;20061;-67
2021/07/07 02:40:21;;;;;;;9.13;6.78;;;;;;;22.56;61.35;99634.59;5037082;28;20021;-69
2021/07/07 02:42:46;;;;;;;10.90;6.88;;;;;;;22.42;62.02;99631.38;5032030;28;20041;-68
2021/07/07 02:45:13;;;;;;;7.78;6.55;;;;;;;22.48;62.01;99634.97;5037171;28;20025;-70
2021/07/07 02:47:40;;;;;;;8.88;7.05;;;;;;;22.26;62.82;99643.75;5035366;28;20227;-68
2021/07/07 02:50:08;;;;;;;8.65;6.95;;;;;;;22.20;63.27;99655.50;5033513;28;20080;-70
2021/07/07 02:52:36;;;;;;;9.57;7.05;;;;;;;21.78;64.48;99649.47;5038598;28;20040;-68
2021/07/07 02:55:03;;;;;;;11.65;7.15;;;;;;;21.69;65.03;99656.28;5041928;28;20227;-70
2021/07/07 02:57:28;;;;;;;10.00;7.32;;;;;;;21.62;65.26;99652.88;5037210;28;20017;-70
2021/07/07 02:59:53;;;;;;;9.27;6.82;;;;;;;21.70;65.74;99649.81;5037271;28;20217;-70
2021/07/07 03:02:19;;;;;;;8.45;6.70;;;;;;;21.96;64.99;99643.13;5036157;28;20044;-70
2021/07/07 03:04:44;;;;;;;8.70;7.13;;;;;;;22.20;63.98;99647.41;5036173;28;20035;-70
2021/07/07 03:07:10;;;;;;;9.73;7.05;;;;;;;22.36;62.91;99651.22;5036585;28;20041;-68
2021/07/07 03:09:35;;;;;;;7.85;6.95;;;;;;;22.42;62.89;99649.44;5035070;28;20281;-70
2021/07/07 03:12:02;;;;;;;9.75;7.28;;;;;;;22.26;63.54;99668.03;5036373;28;20045;-68
2021/07/07 03:14:28;;;;;;;11.20;7.57;;;;;;;21.98;64.75;99668.78;5036140;28;20204;-70
2021/07/07 03:16:53;;;;;;;12.65;8.80;;;;;;;21.67;66.04;99671.84;5034260;28;20223;-68
2021/07/07 03:19:18;;;;;;;12.35;7.50;;;;;;;21.46;66.92;99681.34;5202915;23;20025;-66
2021/07/07 03:21:44;;;;;;;10.40;7.30;;;;;;;21.45;67.24;99670.81;5049309;28;20076;-68
2021/07/07 03:24:10;;;;;;;13.20;7.15;;;;;;;21.65;66.31;99679.34;5060731;28;20032;-69
2021/07/07 03:26:36;;;;;;;12.93;6.97;;;;;;;21.99;64.77;99672.28;5053835;28;20048;-69
2021/07/07 03:29:01;;;;;;;9.82;6.82;;;;;;;22.25;63.80;99665.56;5057948;28;20369;-71
2021/07/07 03:31:27;;;;;;;13.25;8.13;;;;;;;22.30;63.63;99671.88;5060830;28;20040;-68
2021/07/07 03:33:52;;;;;;;8.90;7.18;;;;;;;22.49;62.58;99677.09;5052980;28;20055;-70
2021/07/07 03:36:19;;;;;;;13.82;7.35;;;;;;;22.54;62.51;99672.59;5056158;28;20036;-69
2021/07/07 03:38:45;;;;;;;10.02;6.97;;;;;;;22.67;62.40;99676.88;5061195;28;20256;-67
2021/07/07 03:41:10;;;;;;;10.75;6.65;;;;;;;22.87;62.20;99671.06;5060903;28;20065;-69
2021/07/07 03:43:36;;;;;;;15.05;7.35;;;;;;;22.88;62.46;99670.81;5058488;28;20040;-69
2021/07/07 03:46:01;;;;;;;11.50;7.55;;;;;;;22.78;62.75;99678.69;5053423;28;20029;-69
2021/07/07 03:48:27;;;;;;;9.75;7.05;;;;;;;22.87;62.58;99679.16;5058332;28;20027;-69
2021/07/07 03:50:52;;;;;;;8.35;7.32;;;;;;;22.81;62.84;99683.66;5051620;28;20326;-69
2021/07/07 03:53:18;;;;;;;8.70;6.75;;;;;;;22.82;62.87;99677.19;5058043;28;20017;-71
2021/07/07 03:55:43;;;;;;;15.48;7.78;;;;;;;22.87;63.04;99677.28;5054762;28;20049;-71
2021/07/07 03:58:09;;;;;;;15.07;6.95;;;;;;;22.96;62.63;99675.03;5049533;28;20319;-71
2021/07/07 04:00:34;;;;;;;14.52;7.70;;;;;;;23.12;62.24;99674.22;5061356;28;20314;-71
2021/07/07 04:03:00;;;;;;;18.17;8.32;;;;;;;23.12;61.85;99681.50;5054844;28;20045;-71
2021/07/07 04:05:26;;;;;;;10.23;7.55;;;;;;;22.95;63.79;99686.06;5046912;28;20016;-71
2021/07/07 04:07:52;;;;;;;9.95;7.38;;;;;;;22.96;65.46;99691.22;5054344;28;20337;-69
2021/07/07 04:10:18;;;;;;;12.32;7.80;;;;;;;22.79;65.87;99699.22;5076222;28;20066;-71
2021/07/07 04:12:44;;;;;;;10.32;7.63;;;;;;;22.60;64.25;99698.63;5051576;28;20117;-71
2021/07/07 04:15:11;;;;;;;10.90;7.78;;;;;;;22.49;65.67;99693.28;5051272;28;20063;-69
2021/07/07 04:17:37;;;;;;;9.73;7.13;;;;;;;22.53;63.58;99703.34;5059020;28;20025;-70
2021/07/07 04:20:07;;;;;;;18.10;7.40;;;;;;;22.79;62.83;99699.22;5054632;28;20095;-71
2021/07/07 04:22:32;;;;;;;10.63;7.30;;;;;;;23.02;63.39;99702.94;5053097;28;20040;-71
2021/07/07 04:24:58;;;;;;;10.40;7.25;;;;;;;22.81;64.15;99707.13;5042992;28;20052;-70
2021/07/07 04:27:24;;;;;;;9.38;6.80;;;;;;;22.78;63.09;99704.88;5050833;28;20052;-70
2021/07/07 04:29:49;;;;;;;10.20;7.80;;;;;;;22.86;63.31;99710.72;5050082;28;20052;-70
2021/07/07 04:32:16;;;;;;;12.43;7.10;;;;;;;22.86;62.98;99705.34;5214960;22;20054;-75
2021/07/07 04:34:43;;;;;;;15.70;7.68;;;;;;;23.03;61.82;99694.59;5037184;28;20052;-75
2021/07/07 04:37:09;;;;;;;13.48;7.53;;;;;;;23.24;61.26;99695.72;5038901;28;20037;-76
2021/07/07 04:39:34;;;;;;;12.68;7.15;;;;;;;23.39;59.62;99703.25;5033316;28;20021;-76
2021/07/07 04:41:59;;;;;;;10.75;7.13;;;;;;;23.55;59.74;99705.97;5034289;28;20306;-76
2021/07/07 04:44:25;;;;;;;11.55;7.82;;;;;;;23.73;59.62;99704.06;5037074;28;20072;-76
2021/07/07 04:46:50;;;;;;;10.40;6.72;;;;;;;23.93;57.99;99704.38;5038051;28;20045;-76
2021/07/07 04:49:16;;;;;;;12.13;7.35;;;;;;;24.38;56.53;99700.63;5036574;28;20014;-76
2021/07/07 04:51:41;;;;;;;10.52;6.82;;;;;;;24.59;56.94;99698.97;5034311;28;20037;-76
2021/07/07 04:54:07;;;;;;;96.15;10.40;;;;;;;24.80;56.32;99711.63;5037972;28;20040;-76
2021/07/07 04:56:32;;;;;;;12.82;7.13;;;;;;;25.35;56.01;99710.53;5030675;28;20322;-75
2021/07/07 04:58:58;;;;;;;88.47;10.30;;;;;;;26.18;54.35;99716.25;5031452;28;20033;-76
2021/07/07 06:01:20;;;;;;;13.07;7.32;;;;;;;33.23;33.75;99710.53;5161037;27;20879;-75
2021/07/07 06:03:45;;;;;;;16.83;5.85;;;;;;;33.24;33.39;99723.94;5148606;27;20046;-74
2021/07/07 06:06:10;;;;;;;10.02;7.80;;;;;;;33.69;32.55;99723.94;5144812;27;20250;-76
2021/07/07 06:08:36;;;;;;;12.63;8.50;;;;;;;33.58;32.10;99723.41;5144324;27;20360;-75
2021/07/07 06:11:01;;;;;;;15.57;8.60;;;;;;;33.88;32.42;99710.00;5150260;27;20338;-75
2021/07/07 06:13:27;;;;;;;18.10;8.65;;;;;;;34.22;31.78;99714.78;5146463;27;20035;-75
2021/07/07 06:15:52;;;;;;;14.05;8.18;;;;;;;34.38;31.62;99716.00;5146831;27;20324;-75
2021/07/07 06:18:18;;;;;;;9.18;6.18;;;;;;;34.76;31.05;99729.16;5142385;27;20027;-76
2021/07/07 06:20:44;;;;;;;15.70;7.25;;;;;;;35.02;30.16;99720.91;5151315;27;20367;-75
2021/07/07 06:23:09;;;;;;;10.82;6.43;;;;;;;35.13;30.84;99724.97;5149194;27;20043;-76
2021/07/07 06:25:35;;;;;;;12.65;6.70;;;;;;;35.17;30.14;99735.00;5143848;27;20202;-75
2021/07/07 06:28:00;;;;;;;11.18;6.40;;;;;;;35.04;30.99;99713.16;5151596;27;20027;-75
2021/07/07 06:30:27;;;;;;;10.93;6.68;;;;;;;34.78;31.24;99721.38;5142146;27;20226;-75
2021/07/07 06:32:55;;;;;;;14.05;6.63;;;;;;;35.14;30.58;99723.81;5146908;27;20043;-75
2021/07/07 06:35:21;;;;;;;14.35;6.85;;;;;;;35.29;30.08;99720.56;5147815;27;20046;-74
2021/07/07 06:37:49;;;;;;;15.18;6.70;;;;;;;35.46;29.30;99717.81;5148509;27;20067;-74
2021/07/07 06:40:18;;;;;;;14.48;6.68;;;;;;;35.51;29.07;99723.16;5129797;27;20089;-74
2021/07/07 06:42:44;;;;;;;11.05;6.13;;;;;;;35.75;29.86;99717.09;5131384;27;20242;-74
2021/07/07 06:45:11;;;;;;;26.33;6.85;;;;;;;35.88;29.90;99700.69;5124733;27;20086;-76
2021/07/07 06:47:37;;;;;;;12.82;7.00;;;;;;;35.93;29.45;99698.56;5123366;27;20024;-75
2021/07/07 06:50:08;;;;;;;19.40;6.97;;;;;;;36.36;28.78;99717.63;5128145;27;20068;-75
2021/07/07 06:52:34;;;;;;;8.18;6.20;;;;;;;36.53;27.82;99715.94;5136245;27;20071;-75
2021/07/07 06:54:59;;;;;;;9.65;6.40;;;;;;;35.70;29.24;99713.69;5105153;28;20059;-75
2021/07/07 06:57:25;;;;;;;22.10;7.03;;;;;;;36.17;28.68;99703.44;5129532;27;20284;-75
2021/07/07 06:59:51;;;;;;;11.50;7.03;;;;;;;36.53;28.34;99719.50;5131012;27;20410;-75
2021/07/07 07:02:16;;;;;;;14.20;6.35;;;;;;;36.29;29.29;99711.03;5116476;28;20047;-75
2021/07/07 07:04:42;;;;;;;10.85;6.30;;;;;;;36.79;27.06;99707.47;5118652;27;20332;-77
2021/07/07 07:07:07;;;;;;;12.73;6.55;;;;;;;36.72;27.12;99725.34;5117238;27;20019;-76
2021/07/07 07:09:33;;;;;;;14.85;6.72;;;;;;;36.85;27.20;99715.22;5107400;28;20032;-76
2021/07/07 07:11:58;;;;;;;9.65;5.90;;;;;;;37.03;26.86;99711.16;5120244;27;20027;-74
2021/07/07 07:14:24;;;;;;;13.05;6.30;;;;;;;36.73;27.07;99713.19;5118019;27;20034;-74
2021/07/07 07:16:50;;;;;;;9.32;5.85;;;;;;;36.81;26.53;99714.28;5101386;28;20032;-74
2021/07/07 07:19:15;;;;;;;16.15;6.10;;;;;;;36.98;26.77;99714.13;5116719;27;20035;-75
2021/07/07 07:21:41;;;;;;;8.88;5.90;;;;;;;36.99;25.78;99710.22;5095645;27;20036;-74
2021/07/07 07:24:07;;;;;;;12.50;5.93;;;;;;;37.22;25.75;99721.69;5114143;28;20131;-75
2021/07/07 07:26:33;;;;;;;11.48;5.70;;;;;;;37.55;25.00;99713.44;5113967;28;20064;-76
2021/07/07 07:29:00;;;;;;;9.45;5.30;;;;;;;37.66;24.69;99716.56;5097836;28;20216;-76
2021/07/07 07:31:26;;;;;;;13.93;5.80;;;;;;;37.90;24.41;99721.34;5107809;28;20046;-75
2021/07/07 07:33:51;;;;;;;10.40;5.53;;;;;;;38.43;24.02;99725.00;5117250;27;20204;-75
2021/07/07 07:52:42;;;;;;;11.77;5.60;;;;;;;38.12;23.36;99729.16;5077720;28;20825;-73
2021/07/07 07:55:08;;;;;;;9.75;5.45;;;;;;;38.55;22.61;99728.59;5066735;28;20021;-74
2021/07/07 07:57:38;;;;;;;11.00;5.95;;;;;;;38.74;22.49;99728.00;5062302;28;20049;-73
2021/07/07 08:00:12;;;;;;;9.73;6.15;;;;;;;38.58;22.75;99733.44;5071313;28;20317;-74
2021/07/07 08:02:37;;;;;;;12.50;6.70;;;;;;;38.46;23.01;99714.06;5068425;28;20040;-74
2021/07/07 08:05:04;;;;;;;14.40;5.43;;;;;;;38.74;22.31;99730.75;5064344;28;20037;-73
2021/07/07 08:07:30;;;;;;;11.15;6.25;;;;;;;37.76;24.13;99718.09;5063751;28;20211;-73
2021/07/07 08:09:55;;;;;;;16.50;6.50;;;;;;;38.24;23.23;99720.09;5061774;28;20252;-73
2021/07/07 08:12:22;;;;;;;8.70;5.50;;;;;;;38.38;23.10;99717.75;5066243;28;20029;-73
2021/07/07 08:14:50;;;;;;;11.32;6.22;;;;;;;38.18;23.45;99729.78;5067468;28;20368;-74
2021/07/07 08:17:19;;;;;;;12.68;6.22;;;;;;;37.94;24.29;99703.72;5067031;28;20025;-73
2021/07/07 08:19:45;;;;;;;11.10;5.55;;;;;;;37.07;24.96;99731.41;5064226;28;20063;-73
2021/07/07 08:22:11;;;;;;;12.65;6.07;;;;;;;37.07;24.92;99739.69;5063499;28;20221;-73
2021/07/07 08:24:37;;;;;;;9.52;6.07;;;;;;;37.21;24.25;99736.63;5061157;28;20041;-74
2021/07/07 08:27:02;;;;;;;9.98;6.00;;;;;;;36.90;25.02;99701.22;5068403;28;20045;-73
2021/07/07 08:29:28;;;;;;;9.52;5.80;;;;;;;36.75;25.76;99735.72;5066777;28;20045;-74
2021/07/07 08:31:53;;;;;;;10.52;6.25;;;;;;;36.39;26.42;99732.69;5056266;28;20037;-73
2021/07/07 08:34:19;;;;;;;9.10;6.03;;;;;;;37.03;25.48;99738.75;5048867;28;20381;-75
2021/07/07 08:36:45;;;;;;;14.05;6.35;;;;;;;37.48;24.63;99745.53;5050084;28;20092;-75
2021/07/07 08:39:10;;;;;;;10.02;6.15;;;;;;;37.76;24.96;99734.69;5045140;28;20039;-75
2021/07/07 08:41:38;;;;;;;14.38;6.68;;;;;;;37.45;26.03;99735.13;5054439;28;20047;-77
2021/07/07 08:44:06;;;;;;;10.48;5.68;;;;;;;37.06;25.03;99738.09;5049045;28;21289;-76
2021/07/07 08:46:32;;;;;;;9.63;6.22;;;;;;;37.15;24.71;99738.00;5053041;28;20029;-77
2021/07/07 08:48:57;;;;;;;9.00;5.82;;;;;;;37.57;24.20;99735.19;5044840;28;20361;-76
2021/07/07 08:51:23;;;;;;;9.10;5.60;;;;;;;37.98;23.82;99737.00;5051591;28;20365;-76
2021/07/07 08:53:48;;;;;;;8.30;5.40;;;;;;;37.42;24.02;99738.56;5035732;28;20040;-76
2021/07/07 08:56:14;;;;;;;6.63;4.95;;;;;;;36.57;26.03;99741.69;5035850;28;20038;-77
2021/07/07 08:58:40;;;;;;;5.93;5.10;;;;;;;36.55;25.30;99736.50;5039936;28;20056;-76
2021/07/07 09:01:06;;;;;;;11.13;5.90;;;;;;;36.65;26.20;99744.41;5030601;28;20042;-76
2021/07/07 09:03:31;;;;;;;10.63;5.68;;;;;;;36.67;25.44;99746.81;5032877;28;20068;-77
2021/07/07 09:06:02;;;;;;;8.55;5.03;;;;;;;36.98;25.12;99746.44;5034531;28;20337;-76
2021/07/07 09:08:30;;;;;;;6.40;5.25;;;;;;;37.18;24.41;99747.56;5035988;28;20331;-73
2021/07/07 09:11:27;;;;;;;10.52;5.22;;;;;;;37.13;24.43;99751.34;5029721;28;20077;-73
2021/07/07 09:14:19;;;;;;;10.70;5.28;;;;;;;37.92;23.77;99755.78;5030263;28;20100;-72
2021/07/07 09:16:45;;;;;;;7.28;5.50;;;;;;;38.33;23.83;99756.72;5038770;28;20085;-74
2021/07/07 09:19:17;;;;;;;8.13;4.90;;;;;;;38.34;23.03;99741.72;5039853;28;20116;-75
2021/07/07 09:21:55;;;;;;;13.85;4.93;;;;;;;38.14;23.50;99746.22;5031361;28;20113;-74
2021/07/07 09:24:24;;;;;;;9.95;4.95;;;;;;;38.18;23.07;99743.59;5039841;28;20021;-77
2021/07/07 09:27:05;;;;;;;51.25;7.68;;;;;;;37.06;25.55;99749.13;5042823;28;20250;-77
2021/07/07 09:29:36;;;;;;;6.28;5.10;;;;;;;35.68;28.21;99755.34;5031055;28;20033;-76
2021/07/07 09:32:17;;;;;;;8.77;5.45;;;;;;;35.28;27.28;99753.91;5032052;28;20064;-76
2021/07/07 09:34:46;;;;;;;8.88;5.40;;;;;;;34.91;29.65;99756.22;5025198;28;20088;-76
2021/07/07 09:37:21;;;;;;;15.77;4.90;;;;;;;34.98;28.02;99752.97;5038748;28;20075;-76
2021/07/07 09:39:47;;;;;;;10.25;5.30;;;;;;;35.37;26.61;99752.81;5036352;28;20033;-76
2021/07/07 09:42:12;;;;;;;13.65;4.95;;;;;;;35.80;26.04;99749.16;5030131;28;20349;-76
2021/07/07 09:44:38;;;;;;;9.95;5.28;;;;;;;35.63;26.32;99757.47;5029650;28;20344;-74
2021/07/07 09:47:05;;;;;;;10.88;5.72;;;;;;;35.57;28.69;99747.78;5034414;28;20318;-73
2021/07/07 09:49:34;;;;;;;9.10;5.75;;;;;;;34.71;32.47;99757.63;5029301;28;20203;-73
2021/07/07 09:52:01;;;;;;;8.60;5.82;;;;;;;34.10;31.50;99751.13;5036071;28;20079;-75
2021/07/07 09:54:26;;;;;;;8.77;5.40;;;;;;;33.85;30.30;99749.06;5038842;28;20386;-75
2021/07/07 09:56:52;;;;;;;8.32;5.95;;;;;;;33.72;33.08;99750.75;5031934;28;20045;-77
2021/07/07 09:59:18;;;;;;;7.07;5.90;;;;;;;33.73;31.93;99743.34;5032479;28;20033;-77
2021/07/07 10:01:46;;;;;;;7.53;5.47;;;;;;;33.37;33.07;99746.19;5031595;28;20321;-77
2021/07/07 10:04:17;;;;;;;7.55;5.00;;;;;;;33.50;32.40;99745.31;5041646;28;20033;-77
2021/07/07 10:06:43;;;;;;;6.65;4.95;;;;;;;33.54;31.01;99740.81;5033155;28;20048;-74
2021/07/07 10:09:09;;;;;;;9.20;5.30;;;;;;;33.52;31.97;99746.63;5037181;28;20113;-75
2021/07/07 10:11:37;;;;;;;9.18;4.88;;;;;;;33.03;30.75;99742.03;5035371;28;20310;-75
2021/07/07 10:14:02;;;;;;;8.80;4.53;;;;;;;33.43;31.02;99742.19;5039766;28;20326;-75
2021/07/07 10:16:29;;;;;;;7.10;4.20;;;;;;;33.56;31.32;99738.56;5074261;28;20101;-75
2021/07/07 10:18:55;;;;;;;4.97;4.47;;;;;;;33.50;29.59;99731.59;5046112;28;20203;-76
2021/07/07 10:21:22;;;;;;;10.30;5.13;;;;;;;33.35;30.47;99699.03;5033272;28;20108;-72
2021/07/07 10:23:48;;;;;;;5.97;3.97;;;;;;;33.50;29.18;99748.06;5029719;28;20330;-72
2021/07/07 10:26:15;;;;;;;7.22;4.50;;;;;;;33.53;30.54;99741.94;5037541;28;20041;-73
2021/07/07 10:28:41;;;;;;;4.57;4.03;;;;;;;33.07;30.18;99745.75;5036190;28;20113;-73
2021/07/07 10:31:07;;;;;;;6.32;4.05;;;;;;;33.38;30.21;99731.34;5030631;28;20049;-73
2021/07/07 10:33:37;;;;;;;6.53;4.63;;;;;;;33.36;30.76;99748.13;5044618;28;20049;-74
2021/07/07 10:36:14;;;;;;;7.68;4.40;;;;;;;33.46;31.26;99758.03;5036833;28;20413;-77
2021/07/07 10:38:40;;;;;;;7.47;4.40;;;;;;;33.34;30.73;99752.31;5039732;28;20033;-76
2021/07/07 10:41:06;;;;;;;5.55;4.13;;;;;;;33.77;31.41;99755.31;5025456;28;20034;-76
2021/07/07 10:43:46;;;;;;;8.50;4.28;;;;;;;33.66;30.91;99742.97;5039984;28;20246;-76
2021/07/07 10:46:50;;;;;;;9.68;4.60;;;;;;;33.17;34.40;99759.22;5026178;28;20041;-75
2021/07/07 10:49:27;;;;;;;5.85;4.07;;;;;;;32.95;33.23;99760.03;5029755;28;20054;-76
2021/07/07 10:51:55;;;;;;;5.85;4.25;;;;;;;33.03;31.55;99749.44;5032873;28;20227;-75
2021/07/07 10:54:27;;;;;;;7.53;4.30;;;;;;;33.24;31.93;99740.41;5033702;28;20100;-75
2021/07/07 10:56:54;;;;;;;6.40;4.30;;;;;;;33.47;30.77;99726.72;5032182;28;20263;-75
2021/07/07 10:59:32;;;;;;;5.00;4.03;;;;;;;33.71;30.93;99743.66;5035921;28;20095;-76
2021/07/07 11:02:16;;;;;;;5.72;4.05;;;;;;;33.81;30.80;99743.41;5029112;28;20030;-76
2021/07/07 11:04:47;;;;;;;5.65;4.05;;;;;;;33.34;30.77;99747.63;5033825;28;20297;-74
2021/07/07 11:07:30;;;;;;;9.15;3.95;;;;;;;33.56;32.09;99744.06;5033568;28;20370;-74
2021/07/07 11:10:05;;;;;;;4.60;3.60;;;;;;;33.36;33.20;99747.31;5033528;28;20028;-73
2021/07/07 11:12:37;;;;;;;5.85;4.13;;;;;;;33.08;35.56;99746.56;5036425;28;20241;-74
2021/07/07 11:15:08;;;;;;;6.05;3.97;;;;;;;33.09;32.71;99742.72;5040212;28;20048;-74
2021/07/07 11:17:41;;;;;;;5.18;3.80;;;;;;;33.05;33.39;99737.03;5048817;28;20100;-75
2021/07/07 11:20:15;;;;;;;11.48;4.03;;;;;;;33.12;32.41;99737.41;5041006;28;20048;-75
2021/07/07 11:22:43;;;;;;;9.85;4.45;;;;;;;33.25;32.14;99728.31;5042074;28;20315;-75
2021/07/07 11:25:11;;;;;;;6.03;3.47;;;;;;;33.78;31.07;99727.53;5050857;28;20036;-75
2021/07/07 11:27:37;;;;;;;5.28;3.83;;;;;;;34.03;30.63;99725.22;5035696;28;20056;-75
2021/07/07 11:30:11;;;;;;;9.60;4.20;;;;;;;33.98;31.92;99726.19;5048067;28;20043;-75
2021/07/07 11:32:45;;;;;;;5.68;3.90;;;;;;;33.41;34.03;99717.81;5050867;28;20025;-77
2021/07/07 11:35:32;;;;;;;6.85;4.10;;;;;;;33.61;32.20;99727.44;5043432;28;20108;-77
2021/07/07 11:38:00;;;;;;;5.13;3.75;;;;;;;33.74;32.39;99722.97;5049287;28;20108;-76
2021/07/07 11:40:27;;;;;;;7.68;4.22;;;;;;;33.70;34.59;99719.25;5050488;28;20033;-75
2021/07/07 11:43:01;;;;;;;5.03;3.67;;;;;;;33.56;32.94;99722.91;5035788;28;20037;-77
2021/07/07 11:45:39;;;;;;;4.43;3.50;;;;;;;33.72;33.96;99719.75;5042453;28;20083;-73
2021/07/07 11:48:29;;;;;;;6.78;3.75;;;;;;;33.70;33.34;99716.50;5049365;28;20265;-73
2021/07/07 11:51:00;;;;;;;6.25;4.25;;;;;;;33.91;31.45;99717.59;5032278;28;20034;-73
2021/07/07 11:53:53;;;;;;;3.88;3.47;;;;;;;33.35;35.37;99726.50;5034523;28;20052;-74
2021/07/07 11:56:19;;;;;;;5.53;3.65;;;;;;;33.41;33.97;99719.75;5037450;28;20050;-76
2021/07/07 11:58:50;;;;;;;6.72;3.60;;;;;;;33.30;33.82;99721.94;5038727;28;20028;-77
2021/07/07 12:01:23;;;;;;;5.80;3.70;;;;;;;32.95;32.91;99702.44;5041892;28;20285;-75
2021/07/07 12:03:59;;;;;;;6.78;3.75;;;;;;;33.23;32.94;99718.75;5041312;28;20056;-76
2021/07/07 12:06:33;;;;;;;3.88;3.30;;;;;;;33.06;34.30;99705.72;5042145;28;20045;-75
2021/07/07 12:08:59;;;;;;;6.88;3.33;;;;;;;32.72;34.09;99709.00;5041676;28;20052;-75
2021/07/07 12:11:25;;;;;;;8.60;3.30;;;;;;;32.80;34.33;99713.75;5041448;28;20030;-75
2021/07/07 12:13:52;;;;;;;6.82;3.50;;;;;;;32.82;34.81;99716.19;5041476;28;20037;-75
2021/07/07 12:16:37;;;;;;;6.57;3.42;;;;;;;32.81;34.44;99715.38;5041911;28;20044;-78
2021/07/07 12:19:12;;;;;;;4.00;3.22;;;;;;;32.90;37.14;99709.97;5040355;28;20025;-76
2021/07/07 12:21:39;;;;;;;6.35;3.72;;;;;;;32.66;33.01;99708.28;5050375;28;20037;-76
2021/07/07 12:24:14;;;;;;;4.82;3.22;;;;;;;32.83;33.08;99712.34;5041381;28;20161;-75
2021/07/07 12:26:42;;;;;;;4.88;3.50;;;;;;;33.05;33.47;99709.59;5035794;28;20303;-74
2021/07/07 12:29:11;;;;;;;6.72;3.85;;;;;;;33.16;32.79;99701.94;5045293;28;20334;-74
2021/07/07 12:31:38;;;;;;;5.60;3.17;;;;;;;33.02;34.27;99712.97;5045447;28;20105;-74
2021/07/07 12:34:06;;;;;;;5.28;3.38;;;;;;;33.00;32.85;99707.78;5045105;28;20039;-74
2021/07/07 12:36:33;;;;;;;6.63;3.75;;;;;;;33.02;35.66;99707.47;5045337;28;20041;-74
2021/07/07 12:39:10;;;;;;;3.50;3.20;;;;;;;32.94;33.33;99698.06;5045056;28;20323;-75
2021/07/07 12:41:43;;;;;;;4.88;3.33;;;;;;;33.09;33.57;99698.81;5044590;28;20044;-75
2021/07/07 12:44:14;;;;;;;5.00;2.95;;;;;;;33.46;31.64;99700.41;5034456;28;20068;-75
2021/07/07 12:46:56;;;;;;;6.18;3.40;;;;;;;33.57;31.86;99696.25;5045346;28;20033;-75
2021/07/07 12:49:35;;;;;;;4.88;3.08;;;;;;;33.95;30.77;99705.66;5044397;28;20061;-76